sensor_id;sensor_type;location;lat;lon;timestamp;temperature;humidity
23147;DHT22;11742;53.532;-1.478;2022-07-23T00:01:19;21.40;62.50
23147;DHT22;11742;53.532;-1.478;2022-07-23T00:03:44;21.40;62.60
23147;DHT22;11742;53.532;-1.478;2022-07-23T00:06:10;21.40;62.50
23147;DHT22;11742;53.532;-1.478;2022-07-23T00:08:36;21.40;62.50
23147;DHT22;11742;53.532;-1.478;2022-07-23T00:11:02;21.40;62.50
23147;DHT22;11742;53.532;-1.478;2022-07-23T00:13:28;21.40;62.60
23147;DHT22;11742;53.532;-1.478;2022-07-23T00:15:54;21.40;62.60
23147;DHT22;11742;53.532;-1.478;2022-07-23T00:18:20;21.40;62.60
23147;DHT22;11742;53.532;-1.478;2022-07-23T00:20:46;21.40;62.70
23147;DHT22;11742;53.532;-1.478;2022-07-23T00:23:12;21.40;62.70
23147;DHT22;11742;53.532;-1.478;2022-07-23T00:25:38;21.30;62.70
23147;DHT22;11742;53.532;-1.478;2022-07-23T00:28:04;21.30;62.60
23147;DHT22;11742;53.532;-1.478;2022-07-23T00:30:31;21.30;62.70
23147;DHT22;11742;53.532;-1.478;2022-07-23T00:33:02;21.30;62.70
23147;DHT22;11742;53.532;-1.478;2022-07-23T00:35:32;21.30;62.70
23147;DHT22;11742;53.532;-1.478;2022-07-23T00:37:59;21.20;62.70
23147;DHT22;11742;53.532;-1.478;2022-07-23T00:40:26;21.30;62.80
23147;DHT22;11742;53.532;-1.478;2022-07-23T00:42:52;21.30;62.90
23147;DHT22;11742;53.532;-1.478;2022-07-23T00:45:18;21.20;62.90
23147;DHT22;11742;53.532;-1.478;2022-07-23T00:47:44;21.20;62.90
23147;DHT22;11742;53.532;-1.478;2022-07-23T00:50:10;21.20;62.90
23147;DHT22;11742;53.532;-1.478;2022-07-23T00:52:37;21.20;62.90
23147;DHT22;11742;53.532;-1.478;2022-07-23T00:55:04;21.20;62.90
23147;DHT22;11742;53.532;-1.478;2022-07-23T00:57:30;21.20;63.00
23147;DHT22;11742;53.532;-1.478;2022-07-23T00:59:56;21.20;63.10
23147;DHT22;11742;53.532;-1.478;2022-07-23T01:02:26;21.20;63.20
23147;DHT22;11742;53.532;-1.478;2022-07-23T01:04:52;21.10;63.20
23147;DHT22;11742;53.532;-1.478;2022-07-23T01:07:19;21.20;63.30
23147;DHT22;11742;53.532;-1.478;2022-07-23T01:09:45;21.10;63.40
23147;DHT22;11742;53.532;-1.478;2022-07-23T01:12:12;21.20;63.50
23147;DHT22;11742;53.532;-1.478;2022-07-23T01:14:38;21.10;63.40
23147;DHT22;11742;53.532;-1.478;2022-07-23T01:17:04;21.10;63.40
23147;DHT22;11742;53.532;-1.478;2022-07-23T01:19:30;21.10;63.40
23147;DHT22;11742;53.532;-1.478;2022-07-23T01:21:57;21.10;64.30
23147;DHT22;11742;53.532;-1.478;2022-07-23T01:24:23;21.10;63.50
23147;DHT22;11742;53.532;-1.478;2022-07-23T01:26:50;21.10;63.60
23147;DHT22;11742;53.532;-1.478;2022-07-23T01:29:16;21.10;63.60
23147;DHT22;11742;53.532;-1.478;2022-07-23T01:31:42;21.10;63.60
23147;DHT22;11742;53.532;-1.478;2022-07-23T01:34:08;21.10;63.60
23147;DHT22;11742;53.532;-1.478;2022-07-23T01:36:35;21.10;63.60
23147;DHT22;11742;53.532;-1.478;2022-07-23T01:39:02;21.00;63.60
23147;DHT22;11742;53.532;-1.478;2022-07-23T01:41:28;21.00;63.60
23147;DHT22;11742;53.532;-1.478;2022-07-23T01:43:53;21.00;63.60
23147;DHT22;11742;53.532;-1.478;2022-07-23T01:46:19;21.00;63.50
23147;DHT22;11742;53.532;-1.478;2022-07-23T01:48:45;21.00;63.60
23147;DHT22;11742;53.532;-1.478;2022-07-23T01:51:11;21.00;63.70
23147;DHT22;11742;53.532;-1.478;2022-07-23T01:53:36;21.00;63.70
23147;DHT22;11742;53.532;-1.478;2022-07-23T01:56:02;21.00;63.70
23147;DHT22;11742;53.532;-1.478;2022-07-23T01:58:29;21.00;63.70
23147;DHT22;11742;53.532;-1.478;2022-07-23T02:00:55;21.00;63.70
23147;DHT22;11742;53.532;-1.478;2022-07-23T02:03:21;21.00;63.90
23147;DHT22;11742;53.532;-1.478;2022-07-23T02:05:47;21.00;63.90
23147;DHT22;11742;53.532;-1.478;2022-07-23T02:08:13;20.90;63.90
23147;DHT22;11742;53.532;-1.478;2022-07-23T02:10:39;20.90;63.80
23147;DHT22;11742;53.532;-1.478;2022-07-23T02:13:05;20.90;63.80
23147;DHT22;11742;53.532;-1.478;2022-07-23T02:15:31;20.90;63.80
23147;DHT22;11742;53.532;-1.478;2022-07-23T02:17:56;20.90;63.90
23147;DHT22;11742;53.532;-1.478;2022-07-23T02:20:22;20.90;63.90
23147;DHT22;11742;53.532;-1.478;2022-07-23T02:22:48;20.90;63.90
23147;DHT22;11742;53.532;-1.478;2022-07-23T02:25:14;20.90;64.00
23147;DHT22;11742;53.532;-1.478;2022-07-23T02:27:40;20.90;64.10
23147;DHT22;11742;53.532;-1.478;2022-07-23T02:30:07;20.90;64.10
23147;DHT22;11742;53.532;-1.478;2022-07-23T02:32:33;20.90;64.10
23147;DHT22;11742;53.532;-1.478;2022-07-23T02:34:59;20.90;64.20
23147;DHT22;11742;53.532;-1.478;2022-07-23T02:37:25;20.90;64.20
23147;DHT22;11742;53.532;-1.478;2022-07-23T02:39:50;20.90;64.20
23147;DHT22;11742;53.532;-1.478;2022-07-23T02:42:16;20.90;64.20
23147;DHT22;11742;53.532;-1.478;2022-07-23T02:44:43;20.80;64.20
23147;DHT22;11742;53.532;-1.478;2022-07-23T02:47:08;20.80;64.20
23147;DHT22;11742;53.532;-1.478;2022-07-23T02:49:34;20.80;64.10
23147;DHT22;11742;53.532;-1.478;2022-07-23T02:52:00;20.80;64.30
23147;DHT22;11742;53.532;-1.478;2022-07-23T02:54:26;20.80;64.20
23147;DHT22;11742;53.532;-1.478;2022-07-23T02:56:51;20.90;64.40
23147;DHT22;11742;53.532;-1.478;2022-07-23T02:59:17;20.80;64.40
23147;DHT22;11742;53.532;-1.478;2022-07-23T03:01:44;20.90;64.40
23147;DHT22;11742;53.532;-1.478;2022-07-23T03:04:10;20.80;64.20
23147;DHT22;11742;53.532;-1.478;2022-07-23T03:06:35;20.80;64.40
23147;DHT22;11742;53.532;-1.478;2022-07-23T03:09:02;20.90;64.50
23147;DHT22;11742;53.532;-1.478;2022-07-23T03:11:28;20.90;64.50
23147;DHT22;11742;53.532;-1.478;2022-07-23T03:13:54;20.80;64.50
23147;DHT22;11742;53.532;-1.478;2022-07-23T03:16:19;20.80;64.50
23147;DHT22;11742;53.532;-1.478;2022-07-23T03:18:45;20.80;64.50
23147;DHT22;11742;53.532;-1.478;2022-07-23T03:21:11;20.80;64.60
23147;DHT22;11742;53.532;-1.478;2022-07-23T03:23:36;20.80;64.50
23147;DHT22;11742;53.532;-1.478;2022-07-23T03:26:02;20.80;64.60
23147;DHT22;11742;53.532;-1.478;2022-07-23T03:28:28;20.80;64.60
23147;DHT22;11742;53.532;-1.478;2022-07-23T03:30:53;20.80;64.60
23147;DHT22;11742;53.532;-1.478;2022-07-23T03:33:19;20.70;64.50
23147;DHT22;11742;53.532;-1.478;2022-07-23T03:35:46;20.70;64.50
23147;DHT22;11742;53.532;-1.478;2022-07-23T03:38:13;20.70;64.50
23147;DHT22;11742;53.532;-1.478;2022-07-23T03:40:39;20.70;64.60
23147;DHT22;11742;53.532;-1.478;2022-07-23T03:43:05;20.70;64.50
23147;DHT22;11742;53.532;-1.478;2022-07-23T03:45:31;20.70;64.60
23147;DHT22;11742;53.532;-1.478;2022-07-23T03:47:57;20.70;64.70
23147;DHT22;11742;53.532;-1.478;2022-07-23T03:50:23;20.70;64.70
23147;DHT22;11742;53.532;-1.478;2022-07-23T03:52:49;20.70;64.70
23147;DHT22;11742;53.532;-1.478;2022-07-23T03:55:15;20.70;64.60
23147;DHT22;11742;53.532;-1.478;2022-07-23T03:57:41;20.60;64.50
23147;DHT22;11742;53.532;-1.478;2022-07-23T04:00:08;20.60;64.60
23147;DHT22;11742;53.532;-1.478;2022-07-23T04:02:35;20.60;64.60
23147;DHT22;11742;53.532;-1.478;2022-07-23T04:05:01;20.60;64.60
23147;DHT22;11742;53.532;-1.478;2022-07-23T04:07:27;20.60;64.70
23147;DHT22;11742;53.532;-1.478;2022-07-23T04:09:53;20.60;64.70
23147;DHT22;11742;53.532;-1.478;2022-07-23T04:12:18;20.60;64.70
23147;DHT22;11742;53.532;-1.478;2022-07-23T04:14:44;20.60;65.70
23147;DHT22;11742;53.532;-1.478;2022-07-23T04:17:11;20.60;64.80
23147;DHT22;11742;53.532;-1.478;2022-07-23T04:19:37;20.50;64.80
23147;DHT22;11742;53.532;-1.478;2022-07-23T04:22:08;20.50;64.70
23147;DHT22;11742;53.532;-1.478;2022-07-23T04:24:34;20.50;64.70
23147;DHT22;11742;53.532;-1.478;2022-07-23T04:27:00;20.50;64.70
23147;DHT22;11742;53.532;-1.478;2022-07-23T04:29:26;20.50;64.70
23147;DHT22;11742;53.532;-1.478;2022-07-23T04:31:51;20.50;64.80
23147;DHT22;11742;53.532;-1.478;2022-07-23T04:34:17;20.50;64.80
23147;DHT22;11742;53.532;-1.478;2022-07-23T04:36:43;20.40;64.70
23147;DHT22;11742;53.532;-1.478;2022-07-23T04:39:09;20.50;64.90
23147;DHT22;11742;53.532;-1.478;2022-07-23T04:41:34;20.40;64.80
23147;DHT22;11742;53.532;-1.478;2022-07-23T04:44:01;20.40;64.80
23147;DHT22;11742;53.532;-1.478;2022-07-23T04:46:27;20.40;64.90
23147;DHT22;11742;53.532;-1.478;2022-07-23T04:48:53;20.40;64.90
23147;DHT22;11742;53.532;-1.478;2022-07-23T04:51:19;20.40;65.00
23147;DHT22;11742;53.532;-1.478;2022-07-23T04:53:45;20.40;64.80
23147;DHT22;11742;53.532;-1.478;2022-07-23T04:56:11;20.30;65.00
23147;DHT22;11742;53.532;-1.478;2022-07-23T04:58:36;20.30;65.00
23147;DHT22;11742;53.532;-1.478;2022-07-23T05:01:02;20.30;65.00
23147;DHT22;11742;53.532;-1.478;2022-07-23T05:03:28;20.30;65.00
23147;DHT22;11742;53.532;-1.478;2022-07-23T05:05:54;20.30;65.00
23147;DHT22;11742;53.532;-1.478;2022-07-23T05:08:20;20.30;65.00
23147;DHT22;11742;53.532;-1.478;2022-07-23T05:10:46;20.30;64.90
23147;DHT22;11742;53.532;-1.478;2022-07-23T05:13:11;20.20;64.80
23147;DHT22;11742;53.532;-1.478;2022-07-23T05:15:37;20.30;64.80
23147;DHT22;11742;53.532;-1.478;2022-07-23T05:18:03;20.30;64.90
23147;DHT22;11742;53.532;-1.478;2022-07-23T05:20:29;20.20;64.90
23147;DHT22;11742;53.532;-1.478;2022-07-23T05:22:54;20.20;64.90
23147;DHT22;11742;53.532;-1.478;2022-07-23T05:25:20;20.20;64.90
23147;DHT22;11742;53.532;-1.478;2022-07-23T05:27:46;20.20;65.00
23147;DHT22;11742;53.532;-1.478;2022-07-23T05:30:12;20.20;65.00
23147;DHT22;11742;53.532;-1.478;2022-07-23T05:32:37;20.20;65.00
23147;DHT22;11742;53.532;-1.478;2022-07-23T05:35:05;20.20;65.10
23147;DHT22;11742;53.532;-1.478;2022-07-23T05:37:31;20.20;65.00
23147;DHT22;11742;53.532;-1.478;2022-07-23T05:40:07;20.20;65.00
23147;DHT22;11742;53.532;-1.478;2022-07-23T05:42:38;20.20;65.00
23147;DHT22;11742;53.532;-1.478;2022-07-23T05:45:04;20.20;65.00
23147;DHT22;11742;53.532;-1.478;2022-07-23T05:47:47;20.20;65.10
23147;DHT22;11742;53.532;-1.478;2022-07-23T05:50:13;20.20;65.10
23147;DHT22;11742;53.532;-1.478;2022-07-23T05:52:40;20.20;65.10
23147;DHT22;11742;53.532;-1.478;2022-07-23T05:55:07;20.20;65.10
23147;DHT22;11742;53.532;-1.478;2022-07-23T05:57:33;20.20;65.20
23147;DHT22;11742;53.532;-1.478;2022-07-23T05:59:58;20.10;65.10
23147;DHT22;11742;53.532;-1.478;2022-07-23T06:02:24;20.20;65.20
23147;DHT22;11742;53.532;-1.478;2022-07-23T06:04:50;20.20;65.10
23147;DHT22;11742;53.532;-1.478;2022-07-23T06:07:15;20.20;65.10
23147;DHT22;11742;53.532;-1.478;2022-07-23T06:09:41;20.20;65.10
23147;DHT22;11742;53.532;-1.478;2022-07-23T06:12:07;20.20;65.00
23147;DHT22;11742;53.532;-1.478;2022-07-23T06:14:33;20.20;65.00
23147;DHT22;11742;53.532;-1.478;2022-07-23T06:16:59;20.20;65.10
23147;DHT22;11742;53.532;-1.478;2022-07-23T06:19:25;20.20;65.00
23147;DHT22;11742;53.532;-1.478;2022-07-23T06:21:51;20.20;64.90
23147;DHT22;11742;53.532;-1.478;2022-07-23T06:24:17;20.20;65.00
23147;DHT22;11742;53.532;-1.478;2022-07-23T06:26:43;20.20;64.90
23147;DHT22;11742;53.532;-1.478;2022-07-23T06:29:08;20.20;64.90
23147;DHT22;11742;53.532;-1.478;2022-07-23T06:31:34;20.20;64.80
23147;DHT22;11742;53.532;-1.478;2022-07-23T06:34:00;20.30;64.70
23147;DHT22;11742;53.532;-1.478;2022-07-23T06:36:26;20.30;64.70
23147;DHT22;11742;53.532;-1.478;2022-07-23T06:38:52;20.30;64.60
23147;DHT22;11742;53.532;-1.478;2022-07-23T06:41:18;20.30;64.50
23147;DHT22;11742;53.532;-1.478;2022-07-23T06:43:43;20.30;64.40
23147;DHT22;11742;53.532;-1.478;2022-07-23T06:46:09;20.30;64.30
23147;DHT22;11742;53.532;-1.478;2022-07-23T06:48:35;20.30;64.20
23147;DHT22;11742;53.532;-1.478;2022-07-23T06:51:02;20.40;65.10
23147;DHT22;11742;53.532;-1.478;2022-07-23T06:53:28;20.40;64.20
23147;DHT22;11742;53.532;-1.478;2022-07-23T06:55:54;20.40;64.20
23147;DHT22;11742;53.532;-1.478;2022-07-23T06:58:19;20.40;64.10
23147;DHT22;11742;53.532;-1.478;2022-07-23T07:00:46;20.50;64.10
23147;DHT22;11742;53.532;-1.478;2022-07-23T07:03:12;20.40;64.00
23147;DHT22;11742;53.532;-1.478;2022-07-23T07:05:37;20.50;64.00
23147;DHT22;11742;53.532;-1.478;2022-07-23T07:08:05;20.50;64.10
23147;DHT22;11742;53.532;-1.478;2022-07-23T07:10:31;20.60;64.20
23147;DHT22;11742;53.532;-1.478;2022-07-23T07:12:57;20.60;64.40
23147;DHT22;11742;53.532;-1.478;2022-07-23T07:15:22;20.70;64.50
23147;DHT22;11742;53.532;-1.478;2022-07-23T07:17:48;20.70;64.60
23147;DHT22;11742;53.532;-1.478;2022-07-23T07:20:14;20.80;64.80
23147;DHT22;11742;53.532;-1.478;2022-07-23T07:22:40;20.80;64.70
23147;DHT22;11742;53.532;-1.478;2022-07-23T07:25:06;20.80;64.80
23147;DHT22;11742;53.532;-1.478;2022-07-23T07:27:32;20.90;64.80
23147;DHT22;11742;53.532;-1.478;2022-07-23T07:29:58;20.90;64.70
23147;DHT22;11742;53.532;-1.478;2022-07-23T07:32:24;21.00;65.00
23147;DHT22;11742;53.532;-1.478;2022-07-23T07:34:50;21.00;65.10
23147;DHT22;11742;53.532;-1.478;2022-07-23T07:37:16;21.10;65.30
23147;DHT22;11742;53.532;-1.478;2022-07-23T07:39:42;21.10;65.40
23147;DHT22;11742;53.532;-1.478;2022-07-23T07:42:08;21.10;65.50
23147;DHT22;11742;53.532;-1.478;2022-07-23T07:44:33;21.20;65.40
23147;DHT22;11742;53.532;-1.478;2022-07-23T07:46:59;21.20;65.40
23147;DHT22;11742;53.532;-1.478;2022-07-23T07:49:25;21.30;65.30
23147;DHT22;11742;53.532;-1.478;2022-07-23T07:51:51;21.30;65.20
23147;DHT22;11742;53.532;-1.478;2022-07-23T07:54:16;21.40;65.30
23147;DHT22;11742;53.532;-1.478;2022-07-23T07:56:42;21.40;65.40
23147;DHT22;11742;53.532;-1.478;2022-07-23T07:59:08;21.50;65.60
23147;DHT22;11742;53.532;-1.478;2022-07-23T08:01:33;21.50;65.60
23147;DHT22;11742;53.532;-1.478;2022-07-23T08:04:02;21.50;65.20
23147;DHT22;11742;53.532;-1.478;2022-07-23T08:06:28;21.50;65.50
23147;DHT22;11742;53.532;-1.478;2022-07-23T08:08:53;21.60;65.30
23147;DHT22;11742;53.532;-1.478;2022-07-23T08:11:19;21.60;65.50
23147;DHT22;11742;53.532;-1.478;2022-07-23T08:13:45;21.70;65.50
23147;DHT22;11742;53.532;-1.478;2022-07-23T08:16:11;21.70;65.20
23147;DHT22;11742;53.532;-1.478;2022-07-23T08:18:37;21.70;65.00
23147;DHT22;11742;53.532;-1.478;2022-07-23T08:21:03;21.80;65.10
23147;DHT22;11742;53.532;-1.478;2022-07-23T08:23:32;21.80;65.20
23147;DHT22;11742;53.532;-1.478;2022-07-23T08:25:57;21.90;65.10
23147;DHT22;11742;53.532;-1.478;2022-07-23T08:28:25;21.90;65.40
23147;DHT22;11742;53.532;-1.478;2022-07-23T08:30:50;21.90;65.20
23147;DHT22;11742;53.532;-1.478;2022-07-23T08:33:18;22.00;65.30
23147;DHT22;11742;53.532;-1.478;2022-07-23T08:35:48;22.00;65.30
23147;DHT22;11742;53.532;-1.478;2022-07-23T08:38:17;22.00;65.10
23147;DHT22;11742;53.532;-1.478;2022-07-23T08:40:49;22.10;65.00
23147;DHT22;11742;53.532;-1.478;2022-07-23T08:43:21;22.20;65.20
23147;DHT22;11742;53.532;-1.478;2022-07-23T08:45:51;22.20;65.20
23147;DHT22;11742;53.532;-1.478;2022-07-23T08:48:22;22.20;65.10
23147;DHT22;11742;53.532;-1.478;2022-07-23T08:50:57;22.30;65.10
23147;DHT22;11742;53.532;-1.478;2022-07-23T08:53:25;22.30;65.30
23147;DHT22;11742;53.532;-1.478;2022-07-23T08:55:53;22.40;65.50
23147;DHT22;11742;53.532;-1.478;2022-07-23T08:58:20;22.40;65.30
23147;DHT22;11742;53.532;-1.478;2022-07-23T09:00:46;22.40;65.20
23147;DHT22;11742;53.532;-1.478;2022-07-23T09:03:21;22.40;65.00
23147;DHT22;11742;53.532;-1.478;2022-07-23T09:05:48;22.50;65.10
23147;DHT22;11742;53.532;-1.478;2022-07-23T09:10:59;22.60;65.50
23147;DHT22;11742;53.532;-1.478;2022-07-23T09:16:03;22.60;65.40
23147;DHT22;11742;53.532;-1.478;2022-07-23T09:21:07;22.70;65.50
23147;DHT22;11742;53.532;-1.478;2022-07-23T09:23:47;22.70;65.30
23147;DHT22;11742;53.532;-1.478;2022-07-23T09:29:18;22.80;65.40
23147;DHT22;11742;53.532;-1.478;2022-07-23T09:31:51;22.90;65.30
23147;DHT22;11742;53.532;-1.478;2022-07-23T09:34:28;22.90;65.40
23147;DHT22;11742;53.532;-1.478;2022-07-23T09:36:57;22.90;65.40
23147;DHT22;11742;53.532;-1.478;2022-07-23T09:39:27;23.00;65.30
23147;DHT22;11742;53.532;-1.478;2022-07-23T09:41:53;23.00;65.40
23147;DHT22;11742;53.532;-1.478;2022-07-23T09:44:21;23.10;65.40
23147;DHT22;11742;53.532;-1.478;2022-07-23T09:46:48;23.10;65.30
23147;DHT22;11742;53.532;-1.478;2022-07-23T09:49:22;23.10;65.20
23147;DHT22;11742;53.532;-1.478;2022-07-23T09:51:57;23.10;65.10
23147;DHT22;11742;53.532;-1.478;2022-07-23T09:56:55;23.20;65.40
23147;DHT22;11742;53.532;-1.478;2022-07-23T09:59:27;23.20;65.30
23147;DHT22;11742;53.532;-1.478;2022-07-23T10:01:55;23.30;65.50
23147;DHT22;11742;53.532;-1.478;2022-07-23T10:04:23;23.30;65.50
23147;DHT22;11742;53.532;-1.478;2022-07-23T10:06:54;23.30;65.40
23147;DHT22;11742;53.532;-1.478;2022-07-23T10:09:36;23.20;66.60
23147;DHT22;11742;53.532;-1.478;2022-07-23T10:12:04;23.20;66.60
23147;DHT22;11742;53.532;-1.478;2022-07-23T10:14:41;23.20;66.40
23147;DHT22;11742;53.532;-1.478;2022-07-23T10:17:07;23.30;66.00
23147;DHT22;11742;53.532;-1.478;2022-07-23T10:19:34;23.30;65.70
23147;DHT22;11742;53.532;-1.478;2022-07-23T10:22:02;23.30;65.50
23147;DHT22;11742;53.532;-1.478;2022-07-23T10:27:54;23.40;65.30
23147;DHT22;11742;53.532;-1.478;2022-07-23T10:31:02;23.50;65.70
23147;DHT22;11742;53.532;-1.478;2022-07-23T10:36:31;23.50;65.20
23147;DHT22;11742;53.532;-1.478;2022-07-23T10:39:15;23.60;65.00
23147;DHT22;11742;53.532;-1.478;2022-07-23T10:41:46;23.60;65.10
23147;DHT22;11742;53.532;-1.478;2022-07-23T10:44:14;23.60;65.80
23147;DHT22;11742;53.532;-1.478;2022-07-23T10:46:59;23.70;65.10
23147;DHT22;11742;53.532;-1.478;2022-07-23T10:49:48;23.70;65.00
23147;DHT22;11742;53.532;-1.478;2022-07-23T10:57:09;23.80;64.80
23147;DHT22;11742;53.532;-1.478;2022-07-23T11:02:28;23.90;64.70
23147;DHT22;11742;53.532;-1.478;2022-07-23T11:05:00;23.90;64.50
23147;DHT22;11742;53.532;-1.478;2022-07-23T11:07:26;24.00;64.60
23147;DHT22;11742;53.532;-1.478;2022-07-23T11:09:52;24.00;64.50
23147;DHT22;11742;53.532;-1.478;2022-07-23T11:17:29;24.20;64.50
23147;DHT22;11742;53.532;-1.478;2022-07-23T11:22:48;24.20;63.70
23147;DHT22;11742;53.532;-1.478;2022-07-23T11:27:53;24.30;63.10
23147;DHT22;11742;53.532;-1.478;2022-07-23T11:36:00;24.40;62.80
23147;DHT22;11742;53.532;-1.478;2022-07-23T11:38:30;24.40;62.90
23147;DHT22;11742;53.532;-1.478;2022-07-23T11:40:57;24.50;63.00
23147;DHT22;11742;53.532;-1.478;2022-07-23T11:43:24;24.50;62.70
23147;DHT22;11742;53.532;-1.478;2022-07-23T11:45:52;24.50;62.70
23147;DHT22;11742;53.532;-1.478;2022-07-23T11:48:23;24.60;62.40
23147;DHT22;11742;53.532;-1.478;2022-07-23T11:50:51;24.60;62.20
23147;DHT22;11742;53.532;-1.478;2022-07-23T11:53:31;24.60;62.10
23147;DHT22;11742;53.532;-1.478;2022-07-23T11:56:08;24.60;62.70
23147;DHT22;11742;53.532;-1.478;2022-07-23T11:58:35;24.70;61.90
23147;DHT22;11742;53.532;-1.478;2022-07-23T12:01:01;24.70;61.80
23147;DHT22;11742;53.532;-1.478;2022-07-23T12:03:27;24.70;61.60
23147;DHT22;11742;53.532;-1.478;2022-07-23T12:05:57;24.70;61.20
23147;DHT22;11742;53.532;-1.478;2022-07-23T12:08:23;24.50;59.80
23147;DHT22;11742;53.532;-1.478;2022-07-23T12:10:49;24.40;59.60
23147;DHT22;11742;53.532;-1.478;2022-07-23T12:13:17;24.30;59.40
23147;DHT22;11742;53.532;-1.478;2022-07-23T12:15:46;24.30;59.80
23147;DHT22;11742;53.532;-1.478;2022-07-23T12:18:21;24.40;60.10
23147;DHT22;11742;53.532;-1.478;2022-07-23T12:20:56;24.40;60.30
23147;DHT22;11742;53.532;-1.478;2022-07-23T12:23:24;24.40;60.30
23147;DHT22;11742;53.532;-1.478;2022-07-23T12:25:51;24.40;60.30
23147;DHT22;11742;53.532;-1.478;2022-07-23T12:28:28;24.40;60.30
23147;DHT22;11742;53.532;-1.478;2022-07-23T12:30:57;24.40;60.30
23147;DHT22;11742;53.532;-1.478;2022-07-23T12:35:49;24.40;60.30
23147;DHT22;11742;53.532;-1.478;2022-07-23T12:38:21;24.40;60.40
23147;DHT22;11742;53.532;-1.478;2022-07-23T12:40:47;24.50;60.50
23147;DHT22;11742;53.532;-1.478;2022-07-23T12:43:28;24.50;60.50
23147;DHT22;11742;53.532;-1.478;2022-07-23T12:46:09;24.50;60.50
23147;DHT22;11742;53.532;-1.478;2022-07-23T12:48:40;24.50;60.50
23147;DHT22;11742;53.532;-1.478;2022-07-23T12:51:19;24.50;60.50
23147;DHT22;11742;53.532;-1.478;2022-07-23T12:53:47;24.50;60.50
23147;DHT22;11742;53.532;-1.478;2022-07-23T12:56:31;24.50;60.40
23147;DHT22;11742;53.532;-1.478;2022-07-23T13:01:29;24.60;60.40
23147;DHT22;11742;53.532;-1.478;2022-07-23T13:04:07;24.60;60.50
23147;DHT22;11742;53.532;-1.478;2022-07-23T13:09:01;24.60;60.70
23147;DHT22;11742;53.532;-1.478;2022-07-23T13:11:27;24.60;60.70
23147;DHT22;11742;53.532;-1.478;2022-07-23T13:13:53;24.60;60.70
23147;DHT22;11742;53.532;-1.478;2022-07-23T13:16:19;24.60;60.70
23147;DHT22;11742;53.532;-1.478;2022-07-23T13:18:45;24.60;60.70
23147;DHT22;11742;53.532;-1.478;2022-07-23T13:21:10;24.60;60.70
23147;DHT22;11742;53.532;-1.478;2022-07-23T13:23:36;24.60;60.70
23147;DHT22;11742;53.532;-1.478;2022-07-23T13:26:03;24.60;60.80
23147;DHT22;11742;53.532;-1.478;2022-07-23T13:28:28;24.70;61.80
23147;DHT22;11742;53.532;-1.478;2022-07-23T13:30:54;24.70;61.00
23147;DHT22;11742;53.532;-1.478;2022-07-23T13:33:22;24.70;60.90
23147;DHT22;11742;53.532;-1.478;2022-07-23T13:35:48;24.70;60.90
23147;DHT22;11742;53.532;-1.478;2022-07-23T13:38:14;24.70;60.90
23147;DHT22;11742;53.532;-1.478;2022-07-23T13:40:43;24.70;60.90
23147;DHT22;11742;53.532;-1.478;2022-07-23T13:43:11;24.70;61.00
23147;DHT22;11742;53.532;-1.478;2022-07-23T13:45:37;24.70;60.90
23147;DHT22;11742;53.532;-1.478;2022-07-23T13:48:04;24.80;61.00
23147;DHT22;11742;53.532;-1.478;2022-07-23T13:50:30;24.80;61.10
23147;DHT22;11742;53.532;-1.478;2022-07-23T13:52:56;24.80;61.10
23147;DHT22;11742;53.532;-1.478;2022-07-23T13:55:22;24.80;61.10
23147;DHT22;11742;53.532;-1.478;2022-07-23T13:57:47;24.80;61.20
23147;DHT22;11742;53.532;-1.478;2022-07-23T14:00:14;24.80;61.20
23147;DHT22;11742;53.532;-1.478;2022-07-23T14:02:40;24.90;61.20
23147;DHT22;11742;53.532;-1.478;2022-07-23T14:05:08;24.90;61.40
23147;DHT22;11742;53.532;-1.478;2022-07-23T14:07:34;24.90;61.40
23147;DHT22;11742;53.532;-1.478;2022-07-23T14:10:01;24.90;61.40
23147;DHT22;11742;53.532;-1.478;2022-07-23T14:12:27;25.00;61.40
23147;DHT22;11742;53.532;-1.478;2022-07-23T14:14:52;25.00;61.40
23147;DHT22;11742;53.532;-1.478;2022-07-23T14:17:19;25.00;61.40
23147;DHT22;11742;53.532;-1.478;2022-07-23T14:19:44;25.00;61.40
23147;DHT22;11742;53.532;-1.478;2022-07-23T14:22:10;25.00;61.50
23147;DHT22;11742;53.532;-1.478;2022-07-23T14:24:36;25.00;61.40
23147;DHT22;11742;53.532;-1.478;2022-07-23T14:27:03;25.00;61.50
23147;DHT22;11742;53.532;-1.478;2022-07-23T14:29:29;25.00;61.50
23147;DHT22;11742;53.532;-1.478;2022-07-23T14:31:55;25.10;61.60
23147;DHT22;11742;53.532;-1.478;2022-07-23T14:34:21;25.10;61.70
23147;DHT22;11742;53.532;-1.478;2022-07-23T14:36:47;25.10;61.70
23147;DHT22;11742;53.532;-1.478;2022-07-23T14:39:13;25.10;61.70
23147;DHT22;11742;53.532;-1.478;2022-07-23T14:41:39;25.10;61.70
23147;DHT22;11742;53.532;-1.478;2022-07-23T14:44:05;25.10;61.50
23147;DHT22;11742;53.532;-1.478;2022-07-23T14:46:31;25.20;61.50
23147;DHT22;11742;53.532;-1.478;2022-07-23T14:48:57;25.20;61.60
23147;DHT22;11742;53.532;-1.478;2022-07-23T14:51:23;25.20;61.60
23147;DHT22;11742;53.532;-1.478;2022-07-23T14:53:49;25.20;61.50
23147;DHT22;11742;53.532;-1.478;2022-07-23T14:56:14;25.20;61.50
23147;DHT22;11742;53.532;-1.478;2022-07-23T14:58:40;25.20;62.40
23147;DHT22;11742;53.532;-1.478;2022-07-23T15:01:06;25.20;61.60
23147;DHT22;11742;53.532;-1.478;2022-07-23T15:03:33;25.30;61.70
23147;DHT22;11742;53.532;-1.478;2022-07-23T15:05:59;25.20;61.50
23147;DHT22;11742;53.532;-1.478;2022-07-23T15:08:25;25.30;61.50
23147;DHT22;11742;53.532;-1.478;2022-07-23T15:10:51;25.30;61.70
23147;DHT22;11742;53.532;-1.478;2022-07-23T15:13:17;25.30;61.50
23147;DHT22;11742;53.532;-1.478;2022-07-23T15:15:43;25.30;61.60
23147;DHT22;11742;53.532;-1.478;2022-07-23T15:18:08;25.30;61.60
23147;DHT22;11742;53.532;-1.478;2022-07-23T15:20:34;25.30;61.70
23147;DHT22;11742;53.532;-1.478;2022-07-23T15:23:00;25.40;61.70
23147;DHT22;11742;53.532;-1.478;2022-07-23T15:25:26;25.40;61.80
23147;DHT22;11742;53.532;-1.478;2022-07-23T15:27:51;25.40;61.80
23147;DHT22;11742;53.532;-1.478;2022-07-23T15:30:17;25.40;61.70
23147;DHT22;11742;53.532;-1.478;2022-07-23T15:32:43;25.40;61.90
23147;DHT22;11742;53.532;-1.478;2022-07-23T15:35:09;25.50;61.90
23147;DHT22;11742;53.532;-1.478;2022-07-23T15:37:35;25.50;62.00
23147;DHT22;11742;53.532;-1.478;2022-07-23T15:40:01;25.50;61.90
23147;DHT22;11742;53.532;-1.478;2022-07-23T15:42:30;25.50;61.90
23147;DHT22;11742;53.532;-1.478;2022-07-23T15:44:56;25.50;62.70
23147;DHT22;11742;53.532;-1.478;2022-07-23T15:47:21;25.50;61.80
23147;DHT22;11742;53.532;-1.478;2022-07-23T15:49:47;25.50;61.90
23147;DHT22;11742;53.532;-1.478;2022-07-23T15:52:13;25.50;61.90
23147;DHT22;11742;53.532;-1.478;2022-07-23T15:54:39;25.50;61.80
23147;DHT22;11742;53.532;-1.478;2022-07-23T15:57:07;25.60;61.90
23147;DHT22;11742;53.532;-1.478;2022-07-23T15:59:33;25.60;61.90
23147;DHT22;11742;53.532;-1.478;2022-07-23T16:01:58;25.60;61.90
23147;DHT22;11742;53.532;-1.478;2022-07-23T16:04:24;25.60;61.90
23147;DHT22;11742;53.532;-1.478;2022-07-23T16:06:50;25.60;62.00